sensor_id;sensor_type;location;lat;lon;timestamp;temperature;humidity
9103;DHT22;4587;51.434;6.788;2024-02-15T00:00:04;12.90;99.90
9103;DHT22;4587;51.434;6.788;2024-02-15T00:02:33;12.90;99.90
9103;DHT22;4587;51.434;6.788;2024-02-15T00:04:58;12.90;99.90
9103;DHT22;4587;51.434;6.788;2024-02-15T00:07:24;12.90;99.90
9103;DHT22;4587;51.434;6.788;2024-02-15T00:09:50;12.90;99.90
9103;DHT22;4587;51.434;6.788;2024-02-15T00:12:15;12.90;99.90
9103;DHT22;4587;51.434;6.788;2024-02-15T00:14:41;12.90;99.90
9103;DHT22;4587;51.434;6.788;2024-02-15T00:17:08;12.90;99.90
9103;DHT22;4587;51.434;6.788;2024-02-15T00:19:33;12.90;99.90
9103;DHT22;4587;51.434;6.788;2024-02-15T00:21:59;12.90;99.90
9103;DHT22;4587;51.434;6.788;2024-02-15T00:24:25;12.90;99.90
9103;DHT22;4587;51.434;6.788;2024-02-15T00:26:50;12.90;99.90
9103;DHT22;4587;51.434;6.788;2024-02-15T00:29:16;12.80;99.90
9103;DHT22;4587;51.434;6.788;2024-02-15T00:31:41;12.80;99.90
9103;DHT22;4587;51.434;6.788;2024-02-15T00:34:07;12.80;99.90
9103;DHT22;4587;51.434;6.788;2024-02-15T00:36:33;12.80;99.90
9103;DHT22;4587;51.434;6.788;2024-02-15T00:38:59;12.80;99.90
9103;DHT22;4587;51.434;6.788;2024-02-15T00:41:25;12.70;99.90
9103;DHT22;4587;51.434;6.788;2024-02-15T00:43:50;12.80;99.90
9103;DHT22;4587;51.434;6.788;2024-02-15T00:46:16;12.70;99.90
9103;DHT22;4587;51.434;6.788;2024-02-15T00:48:41;12.70;99.90
9103;DHT22;4587;51.434;6.788;2024-02-15T00:51:07;12.70;99.90
9103;DHT22;4587;51.434;6.788;2024-02-15T00:53:33;12.70;99.90
9103;DHT22;4587;51.434;6.788;2024-02-15T00:55:58;12.70;99.90
9103;DHT22;4587;51.434;6.788;2024-02-15T00:58:24;12.70;99.90
9103;DHT22;4587;51.434;6.788;2024-02-15T01:00:52;12.70;99.90
9103;DHT22;4587;51.434;6.788;2024-02-15T01:03:18;12.80;99.90
9103;DHT22;4587;51.434;6.788;2024-02-15T01:05:44;12.80;99.90
9103;DHT22;4587;51.434;6.788;2024-02-15T01:08:10;12.80;99.90
9103;DHT22;4587;51.434;6.788;2024-02-15T01:10:37;12.80;99.90
9103;DHT22;4587;51.434;6.788;2024-02-15T01:13:03;12.80;99.90
9103;DHT22;4587;51.434;6.788;2024-02-15T01:15:28;12.80;99.90
9103;DHT22;4587;51.434;6.788;2024-02-15T01:17:54;12.80;99.90
9103;DHT22;4587;51.434;6.788;2024-02-15T01:20:20;12.90;99.90
9103;DHT22;4587;51.434;6.788;2024-02-15T01:22:46;12.80;99.90
9103;DHT22;4587;51.434;6.788;2024-02-15T01:25:12;12.80;99.90
9103;DHT22;4587;51.434;6.788;2024-02-15T01:27:38;12.80;99.90
9103;DHT22;4587;51.434;6.788;2024-02-15T01:30:04;12.80;99.90
9103;DHT22;4587;51.434;6.788;2024-02-15T01:32:30;12.80;99.90
9103;DHT22;4587;51.434;6.788;2024-02-15T01:34:56;12.70;99.90
9103;DHT22;4587;51.434;6.788;2024-02-15T01:37:22;12.70;99.90
9103;DHT22;4587;51.434;6.788;2024-02-15T01:39:48;12.70;99.90
9103;DHT22;4587;51.434;6.788;2024-02-15T01:42:13;12.60;99.90
9103;DHT22;4587;51.434;6.788;2024-02-15T01:44:40;12.70;99.90
9103;DHT22;4587;51.434;6.788;2024-02-15T01:47:06;12.60;99.90
9103;DHT22;4587;51.434;6.788;2024-02-15T01:49:32;12.70;99.90
9103;DHT22;4587;51.434;6.788;2024-02-15T01:51:58;12.60;99.90
9103;DHT22;4587;51.434;6.788;2024-02-15T01:54:26;12.60;99.90
9103;DHT22;4587;51.434;6.788;2024-02-15T01:56:52;12.60;99.90
9103;DHT22;4587;51.434;6.788;2024-02-15T01:59:18;12.60;99.90
9103;DHT22;4587;51.434;6.788;2024-02-15T02:01:44;12.60;99.90
9103;DHT22;4587;51.434;6.788;2024-02-15T02:04:10;12.60;99.90
9103;DHT22;4587;51.434;6.788;2024-02-15T02:06:37;12.50;99.90
9103;DHT22;4587;51.434;6.788;2024-02-15T02:09:03;12.50;99.90
9103;DHT22;4587;51.434;6.788;2024-02-15T02:11:29;12.50;99.90
9103;DHT22;4587;51.434;6.788;2024-02-15T02:13:55;12.50;99.90
9103;DHT22;4587;51.434;6.788;2024-02-15T02:16:28;12.60;99.90
9103;DHT22;4587;51.434;6.788;2024-02-15T02:18:55;12.60;99.90
9103;DHT22;4587;51.434;6.788;2024-02-15T02:21:22;12.60;99.90
9103;DHT22;4587;51.434;6.788;2024-02-15T02:23:52;12.60;99.90
9103;DHT22;4587;51.434;6.788;2024-02-15T02:26:20;12.60;99.90
9103;DHT22;4587;51.434;6.788;2024-02-15T02:28:47;12.50;99.90
9103;DHT22;4587;51.434;6.788;2024-02-15T02:31:12;12.50;99.90
9103;DHT22;4587;51.434;6.788;2024-02-15T02:33:38;12.50;99.90
9103;DHT22;4587;51.434;6.788;2024-02-15T02:36:04;12.50;99.90
9103;DHT22;4587;51.434;6.788;2024-02-15T02:38:34;12.60;99.90
9103;DHT22;4587;51.434;6.788;2024-02-15T02:41:03;12.60;99.90
9103;DHT22;4587;51.434;6.788;2024-02-15T02:43:28;12.70;99.90
9103;DHT22;4587;51.434;6.788;2024-02-15T02:45:54;12.60;99.90
9103;DHT22;4587;51.434;6.788;2024-02-15T02:48:19;12.60;99.90
9103;DHT22;4587;51.434;6.788;2024-02-15T02:50:45;12.60;99.90
9103;DHT22;4587;51.434;6.788;2024-02-15T02:53:10;12.60;99.90
9103;DHT22;4587;51.434;6.788;2024-02-15T02:55:36;12.60;99.90
9103;DHT22;4587;51.434;6.788;2024-02-15T02:58:02;12.60;99.90
9103;DHT22;4587;51.434;6.788;2024-02-15T03:00:27;12.60;99.90
9103;DHT22;4587;51.434;6.788;2024-02-15T03:02:53;12.60;99.90
9103;DHT22;4587;51.434;6.788;2024-02-15T03:05:22;12.70;99.90
9103;DHT22;4587;51.434;6.788;2024-02-15T03:07:47;12.60;99.90
9103;DHT22;4587;51.434;6.788;2024-02-15T03:10:14;12.60;99.90
9103;DHT22;4587;51.434;6.788;2024-02-15T03:12:40;12.60;99.90
9103;DHT22;4587;51.434;6.788;2024-02-15T03:15:07;12.70;99.90
9103;DHT22;4587;51.434;6.788;2024-02-15T03:17:40;12.70;99.90
9103;DHT22;4587;51.434;6.788;2024-02-15T03:20:07;12.70;99.90
9103;DHT22;4587;51.434;6.788;2024-02-15T03:25:21;12.80;99.90
9103;DHT22;4587;51.434;6.788;2024-02-15T03:27:52;12.80;99.90
9103;DHT22;4587;51.434;6.788;2024-02-15T03:30:22;12.80;99.90
9103;DHT22;4587;51.434;6.788;2024-02-15T03:32:49;12.80;99.90
9103;DHT22;4587;51.434;6.788;2024-02-15T03:35:17;12.80;99.90
9103;DHT22;4587;51.434;6.788;2024-02-15T03:37:43;12.80;99.90
9103;DHT22;4587;51.434;6.788;2024-02-15T03:40:09;12.80;99.90
9103;DHT22;4587;51.434;6.788;2024-02-15T03:42:35;12.80;99.90
9103;DHT22;4587;51.434;6.788;2024-02-15T03:45:04;12.80;99.90
9103;DHT22;4587;51.434;6.788;2024-02-15T03:47:32;12.80;99.90
9103;DHT22;4587;51.434;6.788;2024-02-15T03:49:59;12.80;99.90
9103;DHT22;4587;51.434;6.788;2024-02-15T03:52:24;12.70;99.90
9103;DHT22;4587;51.434;6.788;2024-02-15T03:54:50;12.70;99.90
9103;DHT22;4587;51.434;6.788;2024-02-15T03:57:16;12.70;99.90
9103;DHT22;4587;51.434;6.788;2024-02-15T03:59:42;12.70;99.90
9103;DHT22;4587;51.434;6.788;2024-02-15T04:02:08;12.70;99.90
9103;DHT22;4587;51.434;6.788;2024-02-15T04:04:39;12.70;99.90
9103;DHT22;4587;51.434;6.788;2024-02-15T04:07:07;12.70;99.90
9103;DHT22;4587;51.434;6.788;2024-02-15T04:09:33;12.70;99.90
9103;DHT22;4587;51.434;6.788;2024-02-15T04:12:01;12.70;99.90
9103;DHT22;4587;51.434;6.788;2024-02-15T04:14:27;12.70;99.90
9103;DHT22;4587;51.434;6.788;2024-02-15T04:16:52;12.70;99.90
9103;DHT22;4587;51.434;6.788;2024-02-15T04:19:18;12.70;99.90
9103;DHT22;4587;51.434;6.788;2024-02-15T04:21:45;12.70;99.90
9103;DHT22;4587;51.434;6.788;2024-02-15T04:24:11;12.70;99.90
9103;DHT22;4587;51.434;6.788;2024-02-15T04:26:38;12.70;99.90
9103;DHT22;4587;51.434;6.788;2024-02-15T04:29:04;12.60;99.90
9103;DHT22;4587;51.434;6.788;2024-02-15T04:31:29;12.70;99.90
9103;DHT22;4587;51.434;6.788;2024-02-15T04:33:55;12.60;99.90
9103;DHT22;4587;51.434;6.788;2024-02-15T04:36:22;12.70;99.90
9103;DHT22;4587;51.434;6.788;2024-02-15T04:38:52;12.70;99.90
9103;DHT22;4587;51.434;6.788;2024-02-15T04:41:18;12.60;99.90
9103;DHT22;4587;51.434;6.788;2024-02-15T04:43:52;12.60;99.90
9103;DHT22;4587;51.434;6.788;2024-02-15T04:46:18;12.60;99.90
9103;DHT22;4587;51.434;6.788;2024-02-15T04:48:47;12.60;99.90
9103;DHT22;4587;51.434;6.788;2024-02-15T04:51:14;12.60;99.90
9103;DHT22;4587;51.434;6.788;2024-02-15T04:53:40;12.60;99.90
9103;DHT22;4587;51.434;6.788;2024-02-15T04:56:06;12.60;99.90
9103;DHT22;4587;51.434;6.788;2024-02-15T04:58:39;12.60;99.90
9103;DHT22;4587;51.434;6.788;2024-02-15T05:01:14;12.60;99.90
9103;DHT22;4587;51.434;6.788;2024-02-15T05:03:41;12.60;99.90
9103;DHT22;4587;51.434;6.788;2024-02-15T05:06:07;12.50;99.90
9103;DHT22;4587;51.434;6.788;2024-02-15T05:08:33;12.50;99.90
9103;DHT22;4587;51.434;6.788;2024-02-15T05:11:00;12.50;99.90
9103;DHT22;4587;51.434;6.788;2024-02-15T05:13:25;12.50;99.90
9103;DHT22;4587;51.434;6.788;2024-02-15T05:15:51;12.60;99.90
9103;DHT22;4587;51.434;6.788;2024-02-15T05:18:16;12.60;99.90
9103;DHT22;4587;51.434;6.788;2024-02-15T05:20:43;12.60;99.90
9103;DHT22;4587;51.434;6.788;2024-02-15T05:23:09;12.60;99.90
9103;DHT22;4587;51.434;6.788;2024-02-15T05:25:34;12.50;99.90
9103;DHT22;4587;51.434;6.788;2024-02-15T05:28:01;12.50;99.90
9103;DHT22;4587;51.434;6.788;2024-02-15T05:30:26;12.50;99.90
9103;DHT22;4587;51.434;6.788;2024-02-15T05:32:52;12.40;99.90
9103;DHT22;4587;51.434;6.788;2024-02-15T05:35:18;12.50;99.90
9103;DHT22;4587;51.434;6.788;2024-02-15T05:37:44;12.50;99.90
9103;DHT22;4587;51.434;6.788;2024-02-15T05:40:11;12.40;99.90
9103;DHT22;4587;51.434;6.788;2024-02-15T05:42:42;12.50;99.90
9103;DHT22;4587;51.434;6.788;2024-02-15T05:45:37;12.50;99.90
9103;DHT22;4587;51.434;6.788;2024-02-15T05:48:05;12.60;99.90
9103;DHT22;4587;51.434;6.788;2024-02-15T05:50:32;12.60;99.90
9103;DHT22;4587;51.434;6.788;2024-02-15T05:52:58;12.60;99.90
9103;DHT22;4587;51.434;6.788;2024-02-15T05:55:24;12.60;99.90
9103;DHT22;4587;51.434;6.788;2024-02-15T05:57:51;12.60;99.90
9103;DHT22;4587;51.434;6.788;2024-02-15T06:00:17;12.60;99.90
9103;DHT22;4587;51.434;6.788;2024-02-15T06:02:44;12.60;99.90
9103;DHT22;4587;51.434;6.788;2024-02-15T06:05:09;12.60;99.90
9103;DHT22;4587;51.434;6.788;2024-02-15T06:07:35;12.60;99.90
9103;DHT22;4587;51.434;6.788;2024-02-15T06:10:01;12.60;99.90
9103;DHT22;4587;51.434;6.788;2024-02-15T06:12:29;12.60;99.90
9103;DHT22;4587;51.434;6.788;2024-02-15T06:14:55;12.60;99.90
9103;DHT22;4587;51.434;6.788;2024-02-15T06:17:20;12.60;99.90
9103;DHT22;4587;51.434;6.788;2024-02-15T06:19:46;12.60;99.90
9103;DHT22;4587;51.434;6.788;2024-02-15T06:22:12;12.60;99.90
9103;DHT22;4587;51.434;6.788;2024-02-15T06:24:38;12.60;99.90
9103;DHT22;4587;51.434;6.788;2024-02-15T06:27:04;12.60;99.90
9103;DHT22;4587;51.434;6.788;2024-02-15T06:29:29;12.60;99.90
9103;DHT22;4587;51.434;6.788;2024-02-15T06:32:13;12.60;99.90
9103;DHT22;4587;51.434;6.788;2024-02-15T06:34:57;12.60;99.90
9103;DHT22;4587;51.434;6.788;2024-02-15T06:37:41;12.70;99.90
9103;DHT22;4587;51.434;6.788;2024-02-15T06:40:25;12.60;99.90
9103;DHT22;4587;51.434;6.788;2024-02-15T06:42:51;12.60;99.90
9103;DHT22;4587;51.434;6.788;2024-02-15T06:45:17;12.60;99.90
9103;DHT22;4587;51.434;6.788;2024-02-15T06:47:43;12.60;99.90
9103;DHT22;4587;51.434;6.788;2024-02-15T06:50:13;12.60;99.90
9103;DHT22;4587;51.434;6.788;2024-02-15T06:52:40;12.60;99.90
9103;DHT22;4587;51.434;6.788;2024-02-15T06:55:07;12.60;99.90
9103;DHT22;4587;51.434;6.788;2024-02-15T06:57:35;12.60;99.90
9103;DHT22;4587;51.434;6.788;2024-02-15T07:00:05;12.60;99.90
9103;DHT22;4587;51.434;6.788;2024-02-15T07:02:33;12.60;99.90
9103;DHT22;4587;51.434;6.788;2024-02-15T07:04:59;12.60;99.90
9103;DHT22;4587;51.434;6.788;2024-02-15T07:07:24;12.60;99.90
9103;DHT22;4587;51.434;6.788;2024-02-15T07:09:50;12.60;99.90
9103;DHT22;4587;51.434;6.788;2024-02-15T07:12:16;12.60;99.90
9103;DHT22;4587;51.434;6.788;2024-02-15T07:14:42;12.60;99.90
9103;DHT22;4587;51.434;6.788;2024-02-15T07:17:08;12.60;99.90
9103;DHT22;4587;51.434;6.788;2024-02-15T07:19:34;12.60;99.90
9103;DHT22;4587;51.434;6.788;2024-02-15T07:22:02;12.60;99.90
9103;DHT22;4587;51.434;6.788;2024-02-15T07:24:28;12.70;99.90
9103;DHT22;4587;51.434;6.788;2024-02-15T07:26:53;12.70;99.90
9103;DHT22;4587;51.434;6.788;2024-02-15T07:29:21;12.60;99.90
9103;DHT22;4587;51.434;6.788;2024-02-15T07:31:49;12.60;99.90
9103;DHT22;4587;51.434;6.788;2024-02-15T07:34:15;12.70;99.90
9103;DHT22;4587;51.434;6.788;2024-02-15T07:36:41;12.60;99.90
9103;DHT22;4587;51.434;6.788;2024-02-15T07:39:07;12.70;99.90
9103;DHT22;4587;51.434;6.788;2024-02-15T07:41:38;12.60;99.90
9103;DHT22;4587;51.434;6.788;2024-02-15T07:44:04;12.60;99.90
9103;DHT22;4587;51.434;6.788;2024-02-15T07:46:29;12.60;99.90
9103;DHT22;4587;51.434;6.788;2024-02-15T07:48:55;12.70;99.90
9103;DHT22;4587;51.434;6.788;2024-02-15T07:51:22;12.60;99.90
9103;DHT22;4587;51.434;6.788;2024-02-15T07:53:48;12.60;99.90
9103;DHT22;4587;51.434;6.788;2024-02-15T07:56:16;12.60;99.90
9103;DHT22;4587;51.434;6.788;2024-02-15T07:58:43;12.60;99.90
9103;DHT22;4587;51.434;6.788;2024-02-15T08:01:15;12.70;99.90
9103;DHT22;4587;51.434;6.788;2024-02-15T08:03:41;12.70;99.90
9103;DHT22;4587;51.434;6.788;2024-02-15T08:06:10;12.70;99.90
9103;DHT22;4587;51.434;6.788;2024-02-15T08:08:41;12.70;99.90
9103;DHT22;4587;51.434;6.788;2024-02-15T08:11:08;12.70;99.90
9103;DHT22;4587;51.434;6.788;2024-02-15T08:13:50;12.80;99.90
9103;DHT22;4587;51.434;6.788;2024-02-15T08:16:20;12.80;99.90
9103;DHT22;4587;51.434;6.788;2024-02-15T08:18:50;12.80;99.90
9103;DHT22;4587;51.434;6.788;2024-02-15T08:21:29;12.80;99.90
9103;DHT22;4587;51.434;6.788;2024-02-15T08:23:55;12.80;99.90
9103;DHT22;4587;51.434;6.788;2024-02-15T08:26:21;12.80;99.90
9103;DHT22;4587;51.434;6.788;2024-02-15T08:28:47;12.80;99.90
9103;DHT22;4587;51.434;6.788;2024-02-15T08:31:12;12.80;99.90
9103;DHT22;4587;51.434;6.788;2024-02-15T08:33:41;12.80;99.90
9103;DHT22;4587;51.434;6.788;2024-02-15T08:36:08;12.80;99.90
9103;DHT22;4587;51.434;6.788;2024-02-15T08:38:36;12.80;99.90
9103;DHT22;4587;51.434;6.788;2024-02-15T08:41:03;12.80;99.90
9103;DHT22;4587;51.434;6.788;2024-02-15T08:43:30;12.80;99.90
9103;DHT22;4587;51.434;6.788;2024-02-15T08:45:58;12.80;99.90
9103;DHT22;4587;51.434;6.788;2024-02-15T08:48:24;12.80;99.90
9103;DHT22;4587;51.434;6.788;2024-02-15T08:50:50;12.80;99.90
9103;DHT22;4587;51.434;6.788;2024-02-15T08:53:15;12.80;99.90
9103;DHT22;4587;51.434;6.788;2024-02-15T08:55:41;12.80;99.90
9103;DHT22;4587;51.434;6.788;2024-02-15T08:58:07;12.90;99.90
9103;DHT22;4587;51.434;6.788;2024-02-15T09:00:34;13.00;99.90
9103;DHT22;4587;51.434;6.788;2024-02-15T09:03:01;13.00;99.90
9103;DHT22;4587;51.434;6.788;2024-02-15T09:05:26;13.00;99.90
9103;DHT22;4587;51.434;6.788;2024-02-15T09:07:52;13.00;99.90
9103;DHT22;4587;51.434;6.788;2024-02-15T09:10:18;13.00;99.90
9103;DHT22;4587;51.434;6.788;2024-02-15T09:12:44;13.00;99.90
9103;DHT22;4587;51.434;6.788;2024-02-15T09:15:13;13.00;99.90
9103;DHT22;4587;51.434;6.788;2024-02-15T09:17:39;13.00;99.90
9103;DHT22;4587;51.434;6.788;2024-02-15T09:20:09;13.00;99.90
9103;DHT22;4587;51.434;6.788;2024-02-15T09:22:43;13.00;99.90
9103;DHT22;4587;51.434;6.788;2024-02-15T09:25:09;13.00;99.90
9103;DHT22;4587;51.434;6.788;2024-02-15T09:27:36;13.00;99.90
9103;DHT22;4587;51.434;6.788;2024-02-15T09:30:02;13.00;99.90
9103;DHT22;4587;51.434;6.788;2024-02-15T09:32:28;13.10;99.90
9103;DHT22;4587;51.434;6.788;2024-02-15T09:34:53;13.20;99.90
9103;DHT22;4587;51.434;6.788;2024-02-15T09:37:19;13.20;99.90
9103;DHT22;4587;51.434;6.788;2024-02-15T09:39:44;13.30;99.90
9103;DHT22;4587;51.434;6.788;2024-02-15T09:42:11;13.30;99.90
9103;DHT22;4587;51.434;6.788;2024-02-15T09:44:37;13.30;99.90
9103;DHT22;4587;51.434;6.788;2024-02-15T09:47:06;13.40;99.90
9103;DHT22;4587;51.434;6.788;2024-02-15T09:49:38;13.40;99.90
9103;DHT22;4587;51.434;6.788;2024-02-15T09:52:06;13.40;99.90
9103;DHT22;4587;51.434;6.788;2024-02-15T09:54:41;13.40;99.90
9103;DHT22;4587;51.434;6.788;2024-02-15T09:57:11;13.50;99.90
9103;DHT22;4587;51.434;6.788;2024-02-15T09:59:39;13.50;99.90
9103;DHT22;4587;51.434;6.788;2024-02-15T10:02:05;13.60;99.90
9103;DHT22;4587;51.434;6.788;2024-02-15T10:04:42;13.60;99.90
9103;DHT22;4587;51.434;6.788;2024-02-15T10:07:09;13.70;99.90
9103;DHT22;4587;51.434;6.788;2024-02-15T10:09:34;13.80;99.90
9103;DHT22;4587;51.434;6.788;2024-02-15T10:12:02;13.80;99.90
9103;DHT22;4587;51.434;6.788;2024-02-15T10:14:29;13.90;99.90
9103;DHT22;4587;51.434;6.788;2024-02-15T10:16:56;14.00;99.90
9103;DHT22;4587;51.434;6.788;2024-02-15T10:19:22;14.10;99.90
9103;DHT22;4587;51.434;6.788;2024-02-15T10:21:54;14.10;99.90
9103;DHT22;4587;51.434;6.788;2024-02-15T10:24:25;14.10;99.90
9103;DHT22;4587;51.434;6.788;2024-02-15T10:27:00;14.10;99.90
9103;DHT22;4587;51.434;6.788;2024-02-15T10:29:30;14.20;99.90
9103;DHT22;4587;51.434;6.788;2024-02-15T10:31:57;14.20;99.90
9103;DHT22;4587;51.434;6.788;2024-02-15T10:34:24;14.20;99.90
9103;DHT22;4587;51.434;6.788;2024-02-15T10:36:55;14.30;99.90
9103;DHT22;4587;51.434;6.788;2024-02-15T10:39:35;14.30;99.90
9103;DHT22;4587;51.434;6.788;2024-02-15T10:42:00;14.30;99.90
9103;DHT22;4587;51.434;6.788;2024-02-15T10:44:26;14.40;99.90
9103;DHT22;4587;51.434;6.788;2024-02-15T10:46:53;14.40;99.90
9103;DHT22;4587;51.434;6.788;2024-02-15T10:49:20;14.40;99.90
9103;DHT22;4587;51.434;6.788;2024-02-15T10:51:56;14.40;99.90
9103;DHT22;4587;51.434;6.788;2024-02-15T10:57:03;14.60;99.90
9103;DHT22;4587;51.434;6.788;2024-02-15T10:59:32;14.60;99.90
9103;DHT22;4587;51.434;6.788;2024-02-15T11:02:00;14.60;99.90
9103;DHT22;4587;51.434;6.788;2024-02-15T11:04:27;14.60;99.90
9103;DHT22;4587;51.434;6.788;2024-02-15T11:06:58;14.60;99.90
9103;DHT22;4587;51.434;6.788;2024-02-15T11:09:24;14.70;99.90
9103;DHT22;4587;51.434;6.788;2024-02-15T11:11:54;14.70;99.90
9103;DHT22;4587;51.434;6.788;2024-02-15T11:14:28;14.80;99.90
9103;DHT22;4587;51.434;6.788;2024-02-15T11:16:58;14.90;99.90
9103;DHT22;4587;51.434;6.788;2024-02-15T11:19:45;15.00;99.90
9103;DHT22;4587;51.434;6.788;2024-02-15T11:22:15;15.10;99.90
9103;DHT22;4587;51.434;6.788;2024-02-15T11:24:51;15.20;99.90
9103;DHT22;4587;51.434;6.788;2024-02-15T11:27:27;15.20;99.90
9103;DHT22;4587;51.434;6.788;2024-02-15T11:30:00;15.30;99.90
9103;DHT22;4587;51.434;6.788;2024-02-15T11:32:48;15.30;99.90
9103;DHT22;4587;51.434;6.788;2024-02-15T11:35:20;15.40;99.90
9103;DHT22;4587;51.434;6.788;2024-02-15T11:40:15;15.50;99.90
9103;DHT22;4587;51.434;6.788;2024-02-15T11:42:40;15.60;99.90
9103;DHT22;4587;51.434;6.788;2024-02-15T11:45:06;15.60;99.90
9103;DHT22;4587;51.434;6.788;2024-02-15T11:47:37;15.70;99.90
9103;DHT22;4587;51.434;6.788;2024-02-15T11:50:08;15.70;99.90
9103;DHT22;4587;51.434;6.788;2024-02-15T11:52:38;15.90;99.90
9103;DHT22;4587;51.434;6.788;2024-02-15T11:55:05;15.90;99.90
9103;DHT22;4587;51.434;6.788;2024-02-15T11:57:34;16.00;99.90
9103;DHT22;4587;51.434;6.788;2024-02-15T12:00:20;16.10;99.90
9103;DHT22;4587;51.434;6.788;2024-02-15T12:03:08;16.20;99.90
9103;DHT22;4587;51.434;6.788;2024-02-15T12:05:52;16.20;99.90
9103;DHT22;4587;51.434;6.788;2024-02-15T12:08:37;16.30;99.90
9103;DHT22;4587;51.434;6.788;2024-02-15T12:11:21;16.30;99.90
9103;DHT22;4587;51.434;6.788;2024-02-15T12:14:05;16.40;99.90
9103;DHT22;4587;51.434;6.788;2024-02-15T12:17:05;16.40;99.90
9103;DHT22;4587;51.434;6.788;2024-02-15T12:19:51;16.40;99.90
9103;DHT22;4587;51.434;6.788;2024-02-15T12:22:36;16.50;99.90
9103;DHT22;4587;51.434;6.788;2024-02-15T12:25:06;16.50;99.90
9103;DHT22;4587;51.434;6.788;2024-02-15T12:27:46;16.60;99.90
9103;DHT22;4587;51.434;6.788;2024-02-15T12:30:19;16.60;99.90
9103;DHT22;4587;51.434;6.788;2024-02-15T12:32:49;16.70;99.90
9103;DHT22;4587;51.434;6.788;2024-02-15T12:35:19;16.80;99.90
9103;DHT22;4587;51.434;6.788;2024-02-15T12:37:45;16.90;99.90
9103;DHT22;4587;51.434;6.788;2024-02-15T12:40:18;16.90;99.90
9103;DHT22;4587;51.434;6.788;2024-02-15T12:42:44;17.00;99.90
9103;DHT22;4587;51.434;6.788;2024-02-15T12:45:20;17.00;99.90
9103;DHT22;4587;51.434;6.788;2024-02-15T12:47:52;17.10;99.90
9103;DHT22;4587;51.434;6.788;2024-02-15T12:50:23;17.20;99.90
9103;DHT22;4587;51.434;6.788;2024-02-15T12:52:50;17.20;99.90
9103;DHT22;4587;51.434;6.788;2024-02-15T12:55:17;17.30;99.90
9103;DHT22;4587;51.434;6.788;2024-02-15T12:57:46;17.40;99.90
9103;DHT22;4587;51.434;6.788;2024-02-15T13:00:15;17.40;99.90
9103;DHT22;4587;51.434;6.788;2024-02-15T13:02:47;17.40;99.90
9103;DHT22;4587;51.434;6.788;2024-02-15T13:05:15;17.40;99.90
9103;DHT22;4587;51.434;6.788;2024-02-15T13:07:40;17.40;99.90
9103;DHT22;4587;51.434;6.788;2024-02-15T13:10:07;17.30;99.90
9103;DHT22;4587;51.434;6.788;2024-02-15T13:12:34;17.30;99.90
9103;DHT22;4587;51.434;6.788;2024-02-15T13:15:04;17.30;99.90
9103;DHT22;4587;51.434;6.788;2024-02-15T13:17:30;17.30;99.90
9103;DHT22;4587;51.434;6.788;2024-02-15T13:19:56;17.30;99.90
9103;DHT22;4587;51.434;6.788;2024-02-15T13:22:29;17.40;99.90
9103;DHT22;4587;51.434;6.788;2024-02-15T13:24:59;17.40;99.90
9103;DHT22;4587;51.434;6.788;2024-02-15T13:27:25;17.40;99.90
9103;DHT22;4587;51.434;6.788;2024-02-15T13:29:51;17.30;99.90
9103;DHT22;4587;51.434;6.788;2024-02-15T13:32:18;17.30;99.90
9103;DHT22;4587;51.434;6.788;2024-02-15T13:34:49;17.30;99.90
9103;DHT22;4587;51.434;6.788;2024-02-15T13:37:21;17.20;99.90
9103;DHT22;4587;51.434;6.788;2024-02-15T13:39:48;17.20;99.90
9103;DHT22;4587;51.434;6.788;2024-02-15T13:42:15;17.20;99.90
9103;DHT22;4587;51.434;6.788;2024-02-15T13:44:42;17.20;99.90
9103;DHT22;4587;51.434;6.788;2024-02-15T13:47:08;17.20;99.90
9103;DHT22;4587;51.434;6.788;2024-02-15T13:49:34;17.20;99.90
9103;DHT22;4587;51.434;6.788;2024-02-15T13:52:00;17.20;99.90
9103;DHT22;4587;51.434;6.788;2024-02-15T13:54:29;17.20;99.90
9103;DHT22;4587;51.434;6.788;2024-02-15T13:56:56;17.20;99.90
9103;DHT22;4587;51.434;6.788;2024-02-15T13:59:22;17.10;99.90
9103;DHT22;4587;51.434;6.788;2024-02-15T14:01:48;17.20;99.90
9103;DHT22;4587;51.434;6.788;2024-02-15T14:04:15;17.20;99.90
9103;DHT22;4587;51.434;6.788;2024-02-15T14:06:41;17.20;99.90
9103;DHT22;4587;51.434;6.788;2024-02-15T14:09:09;17.30;99.90
9103;DHT22;4587;51.434;6.788;2024-02-15T14:11:37;17.30;99.90
9103;DHT22;4587;51.434;6.788;2024-02-15T14:14:03;17.30;99.90
9103;DHT22;4587;51.434;6.788;2024-02-15T14:16:29;17.30;99.90
9103;DHT22;4587;51.434;6.788;2024-02-15T14:18:55;17.40;99.90
9103;DHT22;4587;51.434;6.788;2024-02-15T14:21:20;17.40;99.90
9103;DHT22;4587;51.434;6.788;2024-02-15T14:23:46;17.50;99.90
9103;DHT22;4587;51.434;6.788;2024-02-15T14:26:12;17.50;99.90
9103;DHT22;4587;51.434;6.788;2024-02-15T14:28:37;17.50;99.90
9103;DHT22;4587;51.434;6.788;2024-02-15T14:31:07;17.50;99.90
9103;DHT22;4587;51.434;6.788;2024-02-15T14:33:52;17.50;99.90
9103;DHT22;4587;51.434;6.788;2024-02-15T14:36:17;17.50;99.90
9103;DHT22;4587;51.434;6.788;2024-02-15T14:38:43;17.40;99.90
9103;DHT22;4587;51.434;6.788;2024-02-15T14:41:10;17.40;99.90
9103;DHT22;4587;51.434;6.788;2024-02-15T14:43:36;17.50;99.90
9103;DHT22;4587;51.434;6.788;2024-02-15T14:46:02;17.40;99.90
9103;DHT22;4587;51.434;6.788;2024-02-15T14:48:31;17.30;99.90
9103;DHT22;4587;51.434;6.788;2024-02-15T14:50:57;17.40;99.90
9103;DHT22;4587;51.434;6.788;2024-02-15T14:53:23;17.30;99.90
9103;DHT22;4587;51.434;6.788;2024-02-15T14:55:48;17.20;99.90
9103;DHT22;4587;51.434;6.788;2024-02-15T14:58:15;17.20;99.90
9103;DHT22;4587;51.434;6.788;2024-02-15T15:00:44;17.10;99.90
9103;DHT22;4587;51.434;6.788;2024-02-15T15:03:11;17.00;99.90
9103;DHT22;4587;51.434;6.788;2024-02-15T15:05:39;17.00;99.90
9103;DHT22;4587;51.434;6.788;2024-02-15T15:08:24;17.00;99.90
9103;DHT22;4587;51.434;6.788;2024-02-15T15:11:09;17.00;99.90
9103;DHT22;4587;51.434;6.788;2024-02-15T15:13:53;16.90;99.90
9103;DHT22;4587;51.434;6.788;2024-02-15T15:16:19;16.80;99.90
9103;DHT22;4587;51.434;6.788;2024-02-15T15:18:49;16.80;99.90
9103;DHT22;4587;51.434;6.788;2024-02-15T15:21:17;16.80;99.90
9103;DHT22;4587;51.434;6.788;2024-02-15T15:23:43;16.70;99.90
9103;DHT22;4587;51.434;6.788;2024-02-15T15:26:08;16.70;99.90
9103;DHT22;4587;51.434;6.788;2024-02-15T15:28:40;16.70;99.90
9103;DHT22;4587;51.434;6.788;2024-02-15T15:31:06;16.70;99.90
9103;DHT22;4587;51.434;6.788;2024-02-15T15:33:32;16.60;99.90
9103;DHT22;4587;51.434;6.788;2024-02-15T15:35:59;16.60;99.90
9103;DHT22;4587;51.434;6.788;2024-02-15T15:38:25;16.60;99.90
9103;DHT22;4587;51.434;6.788;2024-02-15T15:40:52;16.50;99.90
9103;DHT22;4587;51.434;6.788;2024-02-15T15:43:18;16.50;99.90
9103;DHT22;4587;51.434;6.788;2024-02-15T15:45:45;16.50;99.90
9103;DHT22;4587;51.434;6.788;2024-02-15T15:48:10;16.40;99.90
9103;DHT22;4587;51.434;6.788;2024-02-15T15:50:37;16.40;99.90
9103;DHT22;4587;51.434;6.788;2024-02-15T15:53:05;16.40;99.90
9103;DHT22;4587;51.434;6.788;2024-02-15T15:55:32;16.40;99.90
9103;DHT22;4587;51.434;6.788;2024-02-15T15:57:57;16.30;99.90
9103;DHT22;4587;51.434;6.788;2024-02-15T16:00:23;16.30;99.90
9103;DHT22;4587;51.434;6.788;2024-02-15T16:02:49;16.30;99.90
9103;DHT22;4587;51.434;6.788;2024-02-15T16:05:17;16.30;99.90
9103;DHT22;4587;51.434;6.788;2024-02-15T16:07:43;16.20;99.90
9103;DHT22;4587;51.434;6.788;2024-02-15T16:10:09;16.20;99.90
9103;DHT22;4587;51.434;6.788;2024-02-15T16:12:36;16.30;99.90
9103;DHT22;4587;51.434;6.788;2024-02-15T16:15:02;16.20;99.90